sensor_id;sensor_type;location;lat;lon;timestamp;P1;durP1;ratioP1;P2;durP2;ratioP2
14734;SDS011;7458;49.002;8.472;2023-04-25T00:01:44;7.57;;;6.20;;
14734;SDS011;7458;49.002;8.472;2023-04-25T00:04:10;6.78;;;5.75;;
14734;SDS011;7458;49.002;8.472;2023-04-25T00:06:36;6.70;;;4.72;;
14734;SDS011;7458;49.002;8.472;2023-04-25T00:09:03;6.35;;;5.50;;
14734;SDS011;7458;49.002;8.472;2023-04-25T00:11:32;7.05;;;5.55;;
14734;SDS011;7458;49.002;8.472;2023-04-25T00:14:00;6.88;;;5.93;;
14734;SDS011;7458;49.002;8.472;2023-04-25T00:16:27;7.57;;;5.90;;
14734;SDS011;7458;49.002;8.472;2023-04-25T00:18:54;10.30;;;5.95;;
14734;SDS011;7458;49.002;8.472;2023-04-25T00:21:20;7.13;;;5.25;;
14734;SDS011;7458;49.002;8.472;2023-04-25T00:23:47;8.05;;;5.53;;
14734;SDS011;7458;49.002;8.472;2023-04-25T00:26:13;14.07;;;5.50;;
14734;SDS011;7458;49.002;8.472;2023-04-25T00:28:39;5.57;;;4.82;;
14734;SDS011;7458;49.002;8.472;2023-04-25T00:31:05;6.22;;;4.72;;
14734;SDS011;7458;49.002;8.472;2023-04-25T00:33:31;8.27;;;6.05;;
14734;SDS011;7458;49.002;8.472;2023-04-25T00:35:57;7.18;;;5.63;;
14734;SDS011;7458;49.002;8.472;2023-04-25T00:38:23;6.13;;;5.05;;
14734;SDS011;7458;49.002;8.472;2023-04-25T00:40:49;6.35;;;5.18;;
14734;SDS011;7458;49.002;8.472;2023-04-25T00:43:15;6.28;;;5.22;;
14734;SDS011;7458;49.002;8.472;2023-04-25T00:45:41;6.28;;;5.07;;
14734;SDS011;7458;49.002;8.472;2023-04-25T00:48:08;6.47;;;5.35;;
14734;SDS011;7458;49.002;8.472;2023-04-25T00:50:34;8.10;;;4.85;;
14734;SDS011;7458;49.002;8.472;2023-04-25T00:53:02;8.18;;;5.30;;
14734;SDS011;7458;49.002;8.472;2023-04-25T00:55:28;5.88;;;4.95;;
14734;SDS011;7458;49.002;8.472;2023-04-25T00:57:56;6.05;;;4.72;;
14734;SDS011;7458;49.002;8.472;2023-04-25T01:00:23;6.97;;;4.70;;
14734;SDS011;7458;49.002;8.472;2023-04-25T01:02:49;5.70;;;5.00;;
14734;SDS011;7458;49.002;8.472;2023-04-25T01:05:15;8.98;;;5.30;;
14734;SDS011;7458;49.002;8.472;2023-04-25T01:07:41;7.55;;;6.13;;
14734;SDS011;7458;49.002;8.472;2023-04-25T01:10:08;5.63;;;4.93;;
14734;SDS011;7458;49.002;8.472;2023-04-25T01:12:34;5.70;;;5.10;;
14734;SDS011;7458;49.002;8.472;2023-04-25T01:15:00;5.50;;;5.00;;
14734;SDS011;7458;49.002;8.472;2023-04-25T01:17:27;6.50;;;5.05;;
14734;SDS011;7458;49.002;8.472;2023-04-25T01:19:54;5.55;;;4.50;;
14734;SDS011;7458;49.002;8.472;2023-04-25T01:22:20;5.55;;;4.57;;
14734;SDS011;7458;49.002;8.472;2023-04-25T01:24:46;5.10;;;4.53;;
14734;SDS011;7458;49.002;8.472;2023-04-25T01:27:13;4.82;;;4.00;;
14734;SDS011;7458;49.002;8.472;2023-04-25T01:29:40;5.18;;;4.60;;
14734;SDS011;7458;49.002;8.472;2023-04-25T01:32:06;8.55;;;4.95;;
14734;SDS011;7458;49.002;8.472;2023-04-25T01:34:33;6.15;;;4.78;;
14734;SDS011;7458;49.002;8.472;2023-04-25T01:36:59;6.25;;;4.90;;
14734;SDS011;7458;49.002;8.472;2023-04-25T01:39:26;5.75;;;4.63;;
14734;SDS011;7458;49.002;8.472;2023-04-25T01:41:53;6.28;;;5.65;;
14734;SDS011;7458;49.002;8.472;2023-04-25T01:44:19;6.35;;;5.13;;
14734;SDS011;7458;49.002;8.472;2023-04-25T01:46:45;5.88;;;4.70;;
14734;SDS011;7458;49.002;8.472;2023-04-25T01:49:11;5.35;;;4.85;;
14734;SDS011;7458;49.002;8.472;2023-04-25T01:51:37;6.95;;;4.80;;
14734;SDS011;7458;49.002;8.472;2023-04-25T01:54:03;7.50;;;6.20;;
14734;SDS011;7458;49.002;8.472;2023-04-25T01:56:30;6.15;;;5.47;;
14734;SDS011;7458;49.002;8.472;2023-04-25T01:58:57;5.93;;;5.07;;
14734;SDS011;7458;49.002;8.472;2023-04-25T02:01:24;5.93;;;4.20;;
14734;SDS011;7458;49.002;8.472;2023-04-25T02:03:50;7.70;;;5.57;;
14734;SDS011;7458;49.002;8.472;2023-04-25T02:06:15;5.05;;;4.38;;
14734;SDS011;7458;49.002;8.472;2023-04-25T02:08:41;6.88;;;4.22;;
14734;SDS011;7458;49.002;8.472;2023-04-25T02:11:07;6.78;;;5.35;;
14734;SDS011;7458;49.002;8.472;2023-04-25T02:13:33;5.47;;;4.85;;
14734;SDS011;7458;49.002;8.472;2023-04-25T02:15:59;7.82;;;5.68;;
14734;SDS011;7458;49.002;8.472;2023-04-25T02:18:24;5.00;;;4.47;;
14734;SDS011;7458;49.002;8.472;2023-04-25T02:20:51;4.93;;;4.43;;
14734;SDS011;7458;49.002;8.472;2023-04-25T02:23:17;6.07;;;5.13;;
14734;SDS011;7458;49.002;8.472;2023-04-25T02:25:44;6.85;;;5.68;;
14734;SDS011;7458;49.002;8.472;2023-04-25T02:28:10;6.45;;;4.25;;
14734;SDS011;7458;49.002;8.472;2023-04-25T02:30:36;6.72;;;5.45;;
14734;SDS011;7458;49.002;8.472;2023-04-25T02:33:02;6.65;;;4.97;;
14734;SDS011;7458;49.002;8.472;2023-04-25T02:35:28;5.50;;;4.75;;
14734;SDS011;7458;49.002;8.472;2023-04-25T02:37:54;7.63;;;5.18;;
14734;SDS011;7458;49.002;8.472;2023-04-25T02:40:20;5.55;;;5.05;;
14734;SDS011;7458;49.002;8.472;2023-04-25T02:42:47;5.88;;;4.80;;
14734;SDS011;7458;49.002;8.472;2023-04-25T02:45:12;6.65;;;5.60;;
14734;SDS011;7458;49.002;8.472;2023-04-25T02:47:38;7.30;;;5.15;;
14734;SDS011;7458;49.002;8.472;2023-04-25T02:50:04;7.40;;;5.75;;
14734;SDS011;7458;49.002;8.472;2023-04-25T02:52:30;5.47;;;4.88;;
14734;SDS011;7458;49.002;8.472;2023-04-25T02:54:56;7.55;;;6.45;;
14734;SDS011;7458;49.002;8.472;2023-04-25T02:57:22;7.32;;;6.30;;
14734;SDS011;7458;49.002;8.472;2023-04-25T02:59:48;6.15;;;5.45;;
14734;SDS011;7458;49.002;8.472;2023-04-25T03:02:14;9.90;;;6.07;;
14734;SDS011;7458;49.002;8.472;2023-04-25T03:04:39;7.57;;;5.90;;
14734;SDS011;7458;49.002;8.472;2023-04-25T03:07:06;6.85;;;6.18;;
14734;SDS011;7458;49.002;8.472;2023-04-25T03:09:32;6.82;;;5.30;;
14734;SDS011;7458;49.002;8.472;2023-04-25T03:11:58;5.25;;;4.75;;
14734;SDS011;7458;49.002;8.472;2023-04-25T03:14:25;6.97;;;5.97;;
14734;SDS011;7458;49.002;8.472;2023-04-25T03:16:50;11.07;;;6.57;;
14734;SDS011;7458;49.002;8.472;2023-04-25T03:19:16;8.25;;;5.93;;
14734;SDS011;7458;49.002;8.472;2023-04-25T03:21:43;7.00;;;5.95;;
14734;SDS011;7458;49.002;8.472;2023-04-25T03:24:09;6.95;;;5.40;;
14734;SDS011;7458;49.002;8.472;2023-04-25T03:26:38;7.57;;;5.40;;
14734;SDS011;7458;49.002;8.472;2023-04-25T03:29:04;7.30;;;6.57;;
14734;SDS011;7458;49.002;8.472;2023-04-25T03:31:31;9.48;;;7.38;;
14734;SDS011;7458;49.002;8.472;2023-04-25T03:33:56;8.02;;;6.55;;
14734;SDS011;7458;49.002;8.472;2023-04-25T03:36:22;8.52;;;6.60;;
14734;SDS011;7458;49.002;8.472;2023-04-25T03:38:48;9.15;;;6.38;;
14734;SDS011;7458;49.002;8.472;2023-04-25T03:41:15;8.13;;;5.75;;
14734;SDS011;7458;49.002;8.472;2023-04-25T03:43:41;6.57;;;5.85;;
14734;SDS011;7458;49.002;8.472;2023-04-25T03:46:06;6.68;;;5.30;;
14734;SDS011;7458;49.002;8.472;2023-04-25T03:48:32;9.60;;;5.22;;
14734;SDS011;7458;49.002;8.472;2023-04-25T03:50:58;7.82;;;6.15;;
14734;SDS011;7458;49.002;8.472;2023-04-25T03:53:24;7.63;;;5.88;;
14734;SDS011;7458;49.002;8.472;2023-04-25T03:55:51;10.48;;;5.85;;
14734;SDS011;7458;49.002;8.472;2023-04-25T03:58:17;8.32;;;7.03;;
14734;SDS011;7458;49.002;8.472;2023-04-25T04:00:43;7.22;;;6.50;;
14734;SDS011;7458;49.002;8.472;2023-04-25T04:03:09;6.78;;;6.15;;
14734;SDS011;7458;49.002;8.472;2023-04-25T04:05:36;8.18;;;6.38;;
14734;SDS011;7458;49.002;8.472;2023-04-25T04:08:02;6.90;;;6.20;;
14734;SDS011;7458;49.002;8.472;2023-04-25T04:10:28;8.23;;;5.70;;
14734;SDS011;7458;49.002;8.472;2023-04-25T04:12:54;7.13;;;6.25;;
14734;SDS011;7458;49.002;8.472;2023-04-25T04:15:20;6.63;;;5.90;;
14734;SDS011;7458;49.002;8.472;2023-04-25T04:17:47;7.57;;;6.28;;
14734;SDS011;7458;49.002;8.472;2023-04-25T04:20:13;6.43;;;5.13;;
14734;SDS011;7458;49.002;8.472;2023-04-25T04:22:39;7.38;;;4.90;;
14734;SDS011;7458;49.002;8.472;2023-04-25T04:25:05;7.32;;;6.45;;
14734;SDS011;7458;49.002;8.472;2023-04-25T04:27:32;7.25;;;6.55;;
14734;SDS011;7458;49.002;8.472;2023-04-25T04:29:57;6.63;;;5.82;;
14734;SDS011;7458;49.002;8.472;2023-04-25T04:32:23;8.00;;;6.15;;
14734;SDS011;7458;49.002;8.472;2023-04-25T04:34:50;7.82;;;6.05;;
14734;SDS011;7458;49.002;8.472;2023-04-25T04:37:17;8.32;;;6.43;;
14734;SDS011;7458;49.002;8.472;2023-04-25T04:39:43;6.75;;;6.13;;
14734;SDS011;7458;49.002;8.472;2023-04-25T04:42:09;6.53;;;5.38;;
14734;SDS011;7458;49.002;8.472;2023-04-25T04:44:36;6.82;;;5.93;;
14734;SDS011;7458;49.002;8.472;2023-04-25T04:47:03;9.73;;;6.35;;
14734;SDS011;7458;49.002;8.472;2023-04-25T04:49:31;8.93;;;6.55;;
14734;SDS011;7458;49.002;8.472;2023-04-25T04:51:58;8.07;;;7.18;;
14734;SDS011;7458;49.002;8.472;2023-04-25T04:54:24;8.52;;;7.60;;
14734;SDS011;7458;49.002;8.472;2023-04-25T04:56:51;8.88;;;7.47;;
14734;SDS011;7458;49.002;8.472;2023-04-25T04:59:18;7.88;;;6.97;;
14734;SDS011;7458;49.002;8.472;2023-04-25T05:01:43;6.32;;;5.63;;
14734;SDS011;7458;49.002;8.472;2023-04-25T05:04:10;8.65;;;7.72;;
14734;SDS011;7458;49.002;8.472;2023-04-25T05:06:36;8.85;;;7.95;;
14734;SDS011;7458;49.002;8.472;2023-04-25T05:09:02;7.35;;;6.55;;
14734;SDS011;7458;49.002;8.472;2023-04-25T05:11:28;8.80;;;7.57;;
14734;SDS011;7458;49.002;8.472;2023-04-25T05:13:54;6.90;;;5.65;;
14734;SDS011;7458;49.002;8.472;2023-04-25T05:16:21;9.90;;;6.53;;
14734;SDS011;7458;49.002;8.472;2023-04-25T05:18:47;8.32;;;7.40;;
14734;SDS011;7458;49.002;8.472;2023-04-25T05:21:13;8.35;;;7.53;;
14734;SDS011;7458;49.002;8.472;2023-04-25T05:23:39;9.30;;;7.13;;
14734;SDS011;7458;49.002;8.472;2023-04-25T05:26:05;6.82;;;6.10;;
14734;SDS011;7458;49.002;8.472;2023-04-25T05:28:38;9.93;;;7.47;;
14734;SDS011;7458;49.002;8.472;2023-04-25T05:31:05;13.68;;;6.82;;
14734;SDS011;7458;49.002;8.472;2023-04-25T05:33:31;8.32;;;7.20;;
14734;SDS011;7458;49.002;8.472;2023-04-25T05:35:58;8.15;;;6.43;;
14734;SDS011;7458;49.002;8.472;2023-04-25T05:38:24;9.27;;;7.32;;
14734;SDS011;7458;49.002;8.472;2023-04-25T05:40:50;10.60;;;7.57;;
14734;SDS011;7458;49.002;8.472;2023-04-25T05:43:15;8.73;;;6.20;;
14734;SDS011;7458;49.002;8.472;2023-04-25T05:45:41;8.30;;;6.70;;
14734;SDS011;7458;49.002;8.472;2023-04-25T05:48:07;7.03;;;5.68;;
14734;SDS011;7458;49.002;8.472;2023-04-25T05:50:33;10.40;;;6.00;;
14734;SDS011;7458;49.002;8.472;2023-04-25T05:52:59;8.52;;;6.68;;
14734;SDS011;7458;49.002;8.472;2023-04-25T05:55:25;7.18;;;5.85;;
14734;SDS011;7458;49.002;8.472;2023-04-25T05:57:51;6.47;;;5.85;;
14734;SDS011;7458;49.002;8.472;2023-04-25T06:00:17;7.05;;;5.93;;
14734;SDS011;7458;49.002;8.472;2023-04-25T06:02:43;8.65;;;6.57;;
14734;SDS011;7458;49.002;8.472;2023-04-25T06:05:09;7.60;;;6.60;;
14734;SDS011;7458;49.002;8.472;2023-04-25T06:07:35;9.88;;;6.63;;
14734;SDS011;7458;49.002;8.472;2023-04-25T06:10:01;10.75;;;8.35;;
14734;SDS011;7458;49.002;8.472;2023-04-25T06:12:27;8.15;;;6.53;;
14734;SDS011;7458;49.002;8.472;2023-04-25T06:14:53;6.53;;;5.93;;
14734;SDS011;7458;49.002;8.472;2023-04-25T06:17:19;7.82;;;6.32;;
14734;SDS011;7458;49.002;8.472;2023-04-25T06:19:45;7.32;;;6.57;;
14734;SDS011;7458;49.002;8.472;2023-04-25T06:22:11;7.85;;;6.18;;
14734;SDS011;7458;49.002;8.472;2023-04-25T06:24:36;9.27;;;6.97;;
14734;SDS011;7458;49.002;8.472;2023-04-25T06:27:02;9.77;;;8.02;;
14734;SDS011;7458;49.002;8.472;2023-04-25T06:29:28;6.82;;;6.22;;
14734;SDS011;7458;49.002;8.472;2023-04-25T06:31:54;10.32;;;6.60;;
14734;SDS011;7458;49.002;8.472;2023-04-25T06:34:20;7.85;;;5.95;;
14734;SDS011;7458;49.002;8.472;2023-04-25T06:36:46;7.00;;;6.30;;
14734;SDS011;7458;49.002;8.472;2023-04-25T06:39:12;8.32;;;6.70;;
14734;SDS011;7458;49.002;8.472;2023-04-25T06:41:38;8.77;;;6.40;;
14734;SDS011;7458;49.002;8.472;2023-04-25T06:44:04;9.65;;;6.90;;
14734;SDS011;7458;49.002;8.472;2023-04-25T06:46:29;9.82;;;6.72;;
14734;SDS011;7458;49.002;8.472;2023-04-25T06:48:58;12.90;;;7.63;;
14734;SDS011;7458;49.002;8.472;2023-04-25T06:51:24;10.77;;;8.07;;
14734;SDS011;7458;49.002;8.472;2023-04-25T06:53:53;8.23;;;6.95;;
14734;SDS011;7458;49.002;8.472;2023-04-25T06:56:19;8.80;;;7.03;;
14734;SDS011;7458;49.002;8.472;2023-04-25T06:58:46;8.38;;;7.10;;
14734;SDS011;7458;49.002;8.472;2023-04-25T07:01:12;8.98;;;7.07;;
14734;SDS011;7458;49.002;8.472;2023-04-25T07:03:38;9.60;;;6.97;;
14734;SDS011;7458;49.002;8.472;2023-04-25T07:06:04;8.93;;;7.70;;
14734;SDS011;7458;49.002;8.472;2023-04-25T07:08:30;9.45;;;6.45;;
14734;SDS011;7458;49.002;8.472;2023-04-25T07:10:56;9.48;;;7.18;;
14734;SDS011;7458;49.002;8.472;2023-04-25T07:13:22;8.38;;;7.13;;
14734;SDS011;7458;49.002;8.472;2023-04-25T07:15:48;9.02;;;7.90;;
14734;SDS011;7458;49.002;8.472;2023-04-25T07:18:14;9.07;;;7.15;;
14734;SDS011;7458;49.002;8.472;2023-04-25T07:20:41;8.38;;;6.82;;
14734;SDS011;7458;49.002;8.472;2023-04-25T07:23:06;8.95;;;7.43;;
14734;SDS011;7458;49.002;8.472;2023-04-25T07:25:32;7.53;;;6.60;;
14734;SDS011;7458;49.002;8.472;2023-04-25T07:28:00;9.60;;;6.70;;
14734;SDS011;7458;49.002;8.472;2023-04-25T07:30:25;9.75;;;7.88;;
14734;SDS011;7458;49.002;8.472;2023-04-25T07:32:51;8.80;;;7.85;;
14734;SDS011;7458;49.002;8.472;2023-04-25T07:35:17;8.88;;;7.97;;
14734;SDS011;7458;49.002;8.472;2023-04-25T07:37:44;8.80;;;7.90;;
14734;SDS011;7458;49.002;8.472;2023-04-25T07:40:10;9.55;;;8.45;;
14734;SDS011;7458;49.002;8.472;2023-04-25T07:42:37;16.33;;;7.70;;
14734;SDS011;7458;49.002;8.472;2023-04-25T07:45:02;8.13;;;7.32;;
14734;SDS011;7458;49.002;8.472;2023-04-25T07:47:28;10.07;;;7.72;;
14734;SDS011;7458;49.002;8.472;2023-04-25T07:49:54;11.90;;;9.07;;
14734;SDS011;7458;49.002;8.472;2023-04-25T07:52:21;9.82;;;8.52;;
14734;SDS011;7458;49.002;8.472;2023-04-25T07:54:47;8.68;;;7.78;;
14734;SDS011;7458;49.002;8.472;2023-04-25T07:57:13;10.60;;;8.25;;
14734;SDS011;7458;49.002;8.472;2023-04-25T07:59:39;9.85;;;8.85;;
14734;SDS011;7458;49.002;8.472;2023-04-25T08:02:05;11.07;;;9.07;;
14734;SDS011;7458;49.002;8.472;2023-04-25T08:04:32;10.88;;;8.52;;
14734;SDS011;7458;49.002;8.472;2023-04-25T08:06:57;14.82;;;9.65;;
14734;SDS011;7458;49.002;8.472;2023-04-25T08:09:23;12.30;;;8.85;;
14734;SDS011;7458;49.002;8.472;2023-04-25T08:11:49;10.05;;;9.05;;
14734;SDS011;7458;49.002;8.472;2023-04-25T08:14:15;10.63;;;9.30;;
14734;SDS011;7458;49.002;8.472;2023-04-25T08:16:41;13.40;;;10.43;;
14734;SDS011;7458;49.002;8.472;2023-04-25T08:19:07;12.88;;;11.48;;
14734;SDS011;7458;49.002;8.472;2023-04-25T08:21:35;15.23;;;12.48;;
14734;SDS011;7458;49.002;8.472;2023-04-25T08:24:00;13.05;;;10.98;;
14734;SDS011;7458;49.002;8.472;2023-04-25T08:26:26;12.43;;;11.18;;
14734;SDS011;7458;49.002;8.472;2023-04-25T08:28:53;14.00;;;12.15;;
14734;SDS011;7458;49.002;8.472;2023-04-25T08:31:19;15.32;;;11.68;;
14734;SDS011;7458;49.002;8.472;2023-04-25T08:33:45;13.50;;;11.77;;
14734;SDS011;7458;49.002;8.472;2023-04-25T08:36:11;13.60;;;12.18;;
14734;SDS011;7458;49.002;8.472;2023-04-25T08:38:37;14.65;;;12.48;;
14734;SDS011;7458;49.002;8.472;2023-04-25T08:41:03;13.10;;;11.15;;
14734;SDS011;7458;49.002;8.472;2023-04-25T08:43:31;14.27;;;12.82;;
14734;SDS011;7458;49.002;8.472;2023-04-25T08:46:00;15.18;;;12.48;;
14734;SDS011;7458;49.002;8.472;2023-04-25T08:48:27;17.70;;;14.25;;
14734;SDS011;7458;49.002;8.472;2023-04-25T08:50:56;17.58;;;13.43;;
14734;SDS011;7458;49.002;8.472;2023-04-25T08:53:30;15.65;;;13.98;;
14734;SDS011;7458;49.002;8.472;2023-04-25T08:55:58;15.82;;;13.98;;
14734;SDS011;7458;49.002;8.472;2023-04-25T08:58:28;15.10;;;13.63;;
14734;SDS011;7458;49.002;8.472;2023-04-25T09:00:55;14.82;;;13.35;;
14734;SDS011;7458;49.002;8.472;2023-04-25T09:03:21;14.88;;;13.35;;
14734;SDS011;7458;49.002;8.472;2023-04-25T09:05:47;18.10;;;13.35;;
14734;SDS011;7458;49.002;8.472;2023-04-25T09:08:15;14.35;;;12.95;;
14734;SDS011;7458;49.002;8.472;2023-04-25T09:10:41;15.98;;;14.00;;
14734;SDS011;7458;49.002;8.472;2023-04-25T09:13:12;18.92;;;13.95;;
14734;SDS011;7458;49.002;8.472;2023-04-25T09:15:49;20.02;;;14.60;;
14734;SDS011;7458;49.002;8.472;2023-04-25T09:18:27;6.00;;;4.82;;
14734;SDS011;7458;49.002;8.472;2023-04-25T09:21:04;13.32;;;11.95;;
14734;SDS011;7458;49.002;8.472;2023-04-25T09:23:40;16.05;;;13.23;;
14734;SDS011;7458;49.002;8.472;2023-04-25T09:26:14;13.90;;;12.38;;
14734;SDS011;7458;49.002;8.472;2023-04-25T09:28:42;15.00;;;13.23;;
14734;SDS011;7458;49.002;8.472;2023-04-25T09:31:09;14.70;;;13.23;;
14734;SDS011;7458;49.002;8.472;2023-04-25T09:33:36;16.17;;;14.57;;
14734;SDS011;7458;49.002;8.472;2023-04-25T09:38:32;15.82;;;13.38;;
14734;SDS011;7458;49.002;8.472;2023-04-25T09:41:11;14.38;;;12.90;;
14734;SDS011;7458;49.002;8.472;2023-04-25T09:43:38;18.25;;;11.95;;
14734;SDS011;7458;49.002;8.472;2023-04-25T09:46:08;12.55;;;11.35;;
14734;SDS011;7458;49.002;8.472;2023-04-25T09:48:36;12.93;;;10.80;;
14734;SDS011;7458;49.002;8.472;2023-04-25T09:53:35;14.70;;;11.02;;
14734;SDS011;7458;49.002;8.472;2023-04-25T09:56:04;13.38;;;11.45;;
14734;SDS011;7458;49.002;8.472;2023-04-25T09:58:32;41.30;;;26.80;;
14734;SDS011;7458;49.002;8.472;2023-04-25T10:01:09;21.40;;;18.30;;
14734;SDS011;7458;49.002;8.472;2023-04-25T10:03:37;21.20;;;16.42;;
14734;SDS011;7458;49.002;8.472;2023-04-25T10:06:08;24.13;;;19.08;;
14734;SDS011;7458;49.002;8.472;2023-04-25T10:08:39;20.38;;;17.08;;
14734;SDS011;7458;49.002;8.472;2023-04-25T10:11:06;20.38;;;15.68;;
14734;SDS011;7458;49.002;8.472;2023-04-25T10:13:34;1227.35;;;999.90;;
14734;SDS011;7458;49.002;8.472;2023-04-25T10:16:04;1212.47;;;978.45;;
14734;SDS011;7458;49.002;8.472;2023-04-25T10:18:30;1217.57;;;972.10;;
14734;SDS011;7458;49.002;8.472;2023-04-25T10:21:04;1222.32;;;985.78;;
14734;SDS011;7458;49.002;8.472;2023-04-25T10:23:32;1199.35;;;972.47;;
14734;SDS011;7458;49.002;8.472;2023-04-25T10:26:01;1182.07;;;992.83;;
14734;SDS011;7458;49.002;8.472;2023-04-25T10:28:28;1187.72;;;973.83;;
14734;SDS011;7458;49.002;8.472;2023-04-25T10:31:00;1183.05;;;998.65;;
14734;SDS011;7458;49.002;8.472;2023-04-25T10:33:40;1202.30;;;958.80;;
14734;SDS011;7458;49.002;8.472;2023-04-25T10:36:09;1178.15;;;974.75;;
14734;SDS011;7458;49.002;8.472;2023-04-25T10:38:49;1080.53;;;889.63;;
14734;SDS011;7458;49.002;8.472;2023-04-25T10:41:19;18.70;;;15.05;;
14734;SDS011;7458;49.002;8.472;2023-04-25T10:43:48;19.33;;;15.50;;
14734;SDS011;7458;49.002;8.472;2023-04-25T10:48:47;18.13;;;16.42;;
14734;SDS011;7458;49.002;8.472;2023-04-25T10:53:47;21.88;;;16.50;;
14734;SDS011;7458;49.002;8.472;2023-04-25T10:59:02;16.30;;;13.52;;
14734;SDS011;7458;49.002;8.472;2023-04-25T11:04:23;16.85;;;13.90;;
14734;SDS011;7458;49.002;8.472;2023-04-25T11:09:45;18.85;;;14.43;;
14734;SDS011;7458;49.002;8.472;2023-04-25T11:12:11;15.48;;;13.98;;
14734;SDS011;7458;49.002;8.472;2023-04-25T11:14:38;16.23;;;14.07;;
14734;SDS011;7458;49.002;8.472;2023-04-25T11:17:04;19.83;;;15.63;;
14734;SDS011;7458;49.002;8.472;2023-04-25T11:19:31;24.25;;;16.85;;
14734;SDS011;7458;49.002;8.472;2023-04-25T11:21:58;17.70;;;13.63;;
14734;SDS011;7458;49.002;8.472;2023-04-25T11:24:29;21.77;;;15.57;;
14734;SDS011;7458;49.002;8.472;2023-04-25T11:26:58;18.48;;;14.93;;
14734;SDS011;7458;49.002;8.472;2023-04-25T11:29:28;19.50;;;17.15;;
14734;SDS011;7458;49.002;8.472;2023-04-25T11:31:56;22.58;;;16.27;;
14734;SDS011;7458;49.002;8.472;2023-04-25T11:34:23;18.67;;;15.52;;
14734;SDS011;7458;49.002;8.472;2023-04-25T11:36:50;19.60;;;15.07;;
14734;SDS011;7458;49.002;8.472;2023-04-25T11:39:18;22.17;;;14.55;;
14734;SDS011;7458;49.002;8.472;2023-04-25T11:41:44;20.60;;;15.57;;
14734;SDS011;7458;49.002;8.472;2023-04-25T11:44:11;21.17;;;14.75;;
14734;SDS011;7458;49.002;8.472;2023-04-25T11:46:40;17.73;;;15.30;;
14734;SDS011;7458;49.002;8.472;2023-04-25T11:49:08;17.90;;;15.32;;
14734;SDS011;7458;49.002;8.472;2023-04-25T11:51:38;23.92;;;15.77;;
14734;SDS011;7458;49.002;8.472;2023-04-25T11:54:11;20.98;;;15.57;;
14734;SDS011;7458;49.002;8.472;2023-04-25T11:56:41;16.27;;;14.30;;
14734;SDS011;7458;49.002;8.472;2023-04-25T11:59:11;19.58;;;15.15;;
14734;SDS011;7458;49.002;8.472;2023-04-25T12:01:38;18.38;;;16.55;;
14734;SDS011;7458;49.002;8.472;2023-04-25T12:04:23;22.90;;;17.15;;
14734;SDS011;7458;49.002;8.472;2023-04-25T12:06:51;18.45;;;12.93;;
14734;SDS011;7458;49.002;8.472;2023-04-25T12:09:19;18.48;;;16.17;;
14734;SDS011;7458;49.002;8.472;2023-04-25T12:11:57;19.60;;;15.23;;
14734;SDS011;7458;49.002;8.472;2023-04-25T12:14:28;18.65;;;15.25;;
14734;SDS011;7458;49.002;8.472;2023-04-25T12:17:00;17.35;;;14.65;;
14734;SDS011;7458;49.002;8.472;2023-04-25T12:19:32;20.17;;;15.43;;
14734;SDS011;7458;49.002;8.472;2023-04-25T12:22:00;15.00;;;12.90;;
14734;SDS011;7458;49.002;8.472;2023-04-25T12:24:28;13.90;;;12.38;;
14734;SDS011;7458;49.002;8.472;2023-04-25T12:27:01;19.75;;;13.48;;
14734;SDS011;7458;49.002;8.472;2023-04-25T12:29:30;15.77;;;13.68;;
14734;SDS011;7458;49.002;8.472;2023-04-25T12:31:58;15.63;;;12.63;;
14734;SDS011;7458;49.002;8.472;2023-04-25T12:34:26;16.13;;;12.18;;
14734;SDS011;7458;49.002;8.472;2023-04-25T12:36:54;17.27;;;13.23;;
14734;SDS011;7458;49.002;8.472;2023-04-25T12:39:20;20.52;;;13.63;;
14734;SDS011;7458;49.002;8.472;2023-04-25T12:41:48;17.17;;;13.15;;
14734;SDS011;7458;49.002;8.472;2023-04-25T12:44:17;19.27;;;13.95;;
14734;SDS011;7458;49.002;8.472;2023-04-25T12:46:43;17.10;;;14.68;;
14734;SDS011;7458;49.002;8.472;2023-04-25T12:49:08;16.88;;;14.35;;
14734;SDS011;7458;49.002;8.472;2023-04-25T12:51:35;15.02;;;13.18;;
14734;SDS011;7458;49.002;8.472;2023-04-25T12:54:02;14.25;;;12.68;;
14734;SDS011;7458;49.002;8.472;2023-04-25T12:56:30;14.55;;;13.05;;
14734;SDS011;7458;49.002;8.472;2023-04-25T12:58:56;18.05;;;12.85;;
14734;SDS011;7458;49.002;8.472;2023-04-25T13:01:22;17.02;;;12.85;;
14734;SDS011;7458;49.002;8.472;2023-04-25T13:03:49;16.92;;;13.13;;
14734;SDS011;7458;49.002;8.472;2023-04-25T13:06:15;14.90;;;11.65;;
14734;SDS011;7458;49.002;8.472;2023-04-25T13:08:43;15.00;;;11.10;;
14734;SDS011;7458;49.002;8.472;2023-04-25T13:11:09;13.65;;;11.48;;
14734;SDS011;7458;49.002;8.472;2023-04-25T13:13:36;12.32;;;10.75;;
14734;SDS011;7458;49.002;8.472;2023-04-25T13:16:05;11.10;;;10.00;;
14734;SDS011;7458;49.002;8.472;2023-04-25T13:18:32;11.63;;;8.75;;
14734;SDS011;7458;49.002;8.472;2023-04-25T13:20:58;13.07;;;10.73;;
14734;SDS011;7458;49.002;8.472;2023-04-25T13:23:25;12.20;;;11.00;;
14734;SDS011;7458;49.002;8.472;2023-04-25T13:25:53;12.65;;;11.02;;
14734;SDS011;7458;49.002;8.472;2023-04-25T13:28:20;15.23;;;10.95;;
14734;SDS011;7458;49.002;8.472;2023-04-25T13:30:46;10.65;;;9.57;;
14734;SDS011;7458;49.002;8.472;2023-04-25T13:33:13;10.20;;;9.18;;
14734;SDS011;7458;49.002;8.472;2023-04-25T13:35:39;8.45;;;6.95;;
14734;SDS011;7458;49.002;8.472;2023-04-25T13:38:06;9.63;;;8.60;;
14734;SDS011;7458;49.002;8.472;2023-04-25T13:40:32;8.55;;;6.32;;
14734;SDS011;7458;49.002;8.472;2023-04-25T13:42:58;9.43;;;8.25;;
14734;SDS011;7458;49.002;8.472;2023-04-25T13:45:26;7.15;;;6.38;;
14734;SDS011;7458;49.002;8.472;2023-04-25T13:47:52;7.65;;;6.57;;
14734;SDS011;7458;49.002;8.472;2023-04-25T13:50:18;10.90;;;7.32;;
14734;SDS011;7458;49.002;8.472;2023-04-25T13:52:47;9.63;;;7.45;;
14734;SDS011;7458;49.002;8.472;2023-04-25T13:55:13;14.82;;;8.07;;
14734;SDS011;7458;49.002;8.472;2023-04-25T13:57:38;9.52;;;6.15;;
14734;SDS011;7458;49.002;8.472;2023-04-25T14:00:04;9.82;;;7.60;;
14734;SDS011;7458;49.002;8.472;2023-04-25T14:02:37;9.93;;;8.02;;
14734;SDS011;7458;49.002;8.472;2023-04-25T14:05:03;7.72;;;6.43;;
14734;SDS011;7458;49.002;8.472;2023-04-25T14:07:30;8.27;;;7.45;;
14734;SDS011;7458;49.002;8.472;2023-04-25T14:09:56;7.97;;;6.93;;
14734;SDS011;7458;49.002;8.472;2023-04-25T14:12:23;8.35;;;7.20;;
14734;SDS011;7458;49.002;8.472;2023-04-25T14:14:49;8.77;;;7.25;;
14734;SDS011;7458;49.002;8.472;2023-04-25T14:17:15;10.25;;;8.40;;
14734;SDS011;7458;49.002;8.472;2023-04-25T14:19:41;9.52;;;7.95;;
14734;SDS011;7458;49.002;8.472;2023-04-25T14:22:10;12.82;;;9.85;;
14734;SDS011;7458;49.002;8.472;2023-04-25T14:24:36;16.30;;;8.68;;
14734;SDS011;7458;49.002;8.472;2023-04-25T14:27:03;11.05;;;8.05;;
14734;SDS011;7458;49.002;8.472;2023-04-25T14:29:29;10.60;;;7.35;;
14734;SDS011;7458;49.002;8.472;2023-04-25T14:31:55;9.65;;;8.27;;
14734;SDS011;7458;49.002;8.472;2023-04-25T14:34:23;10.20;;;6.90;;
14734;SDS011;7458;49.002;8.472;2023-04-25T14:36:50;9.32;;;7.43;;
14734;SDS011;7458;49.002;8.472;2023-04-25T14:39:17;7.63;;;6.55;;
14734;SDS011;7458;49.002;8.472;2023-04-25T14:41:43;9.60;;;8.70;;
14734;SDS011;7458;49.002;8.472;2023-04-25T14:44:10;7.93;;;6.72;;
14734;SDS011;7458;49.002;8.472;2023-04-25T14:46:36;8.82;;;7.72;;
14734;SDS011;7458;49.002;8.472;2023-04-25T14:49:02;9.32;;;6.95;;
14734;SDS011;7458;49.002;8.472;2023-04-25T14:51:28;7.95;;;6.65;;
14734;SDS011;7458;49.002;8.472;2023-04-25T14:53:54;7.30;;;6.25;;
14734;SDS011;7458;49.002;8.472;2023-04-25T14:56:21;11.13;;;6.68;;
14734;SDS011;7458;49.002;8.472;2023-04-25T14:58:47;11.50;;;8.07;;
14734;SDS011;7458;49.002;8.472;2023-04-25T15:01:12;9.98;;;8.30;;
14734;SDS011;7458;49.002;8.472;2023-04-25T15:03:41;10.98;;;7.57;;
14734;SDS011;7458;49.002;8.472;2023-04-25T15:06:07;15.55;;;7.43;;
14734;SDS011;7458;49.002;8.472;2023-04-25T15:08:33;9.70;;;7.28;;